Berea, Nebraska
Current Conditions -  °F | °C
As of 1:53 AM on Thursday 23 Oct 2014 (Local Time) from KAIA Reporting Station
Clear Clear  
Wind Chill: 17°   Ceiling: Unl
Heat Index: 27°   Visibility: 10mi
Dew Point: 23°   Wind: 10mph
Humidity: 85%   Direction: 270°W
Pressure: 30.1"   Gusts: NA
Location:  42.1783°N, 103.14°W
Report Text: KAIA 230753Z AUTO 27009KT 10SM CLR M03/M05 A3010 RMK AO2 SLP189 T10281050
Loading
Personal Weather Stations






























Interactive Weather Map
Tropical Storm Tracking
New forecast layout! Learn more

10-Day Weather Forecast

Advertisements
Track Severe Weather on mobile